Time;durP1;ratioP1;P1;durP2;ratioP2;P2;SDS_P1;SDS_P2;PMS_P1;PMS_P2;Temp;Humidity;BMP_temperature;BMP_pressure;BME280_temperature;BME280_humidity;BME280_pressure;Samples;Min_cycle;Max_cycle;Signal;HPM_P1;HPM_P2
2023/03/13 06:44:02;;;;;;;45.10;20.00;;;;;;;0.62;64.75;101564.34;105198;1281;601216;-82
2023/03/13 06:46:31;;;;;;;36.80;19.10;;;;;;;0.70;64.23;101561.30;107348;1255;59210;-84
2023/03/13 06:49:03;;;;;;;47.10;20.30;;;;;;;0.92;64.53;101556.95;107148;1252;59580;-84
2023/03/13 06:51:32;;;;;;;29.90;16.60;;;;;;;1.12;62.97;101547.83;106589;1257;70004;-82
2023/03/13 06:54:02;;;;;;;40.70;18.90;;;;;;;1.32;62.39;101543.11;107056;1252;70013;-86
2023/03/13 06:56:31;;;;;;;38.10;19.40;;;;;;;1.52;61.98;101541.65;106883;1248;319331;-84
2023/03/13 06:59:00;;;;;;;35.40;17.90;;;;;;;1.85;61.54;101543.67;107120;1248;71094;-84
2023/03/13 07:01:29;;;;;;;36.10;18.00;;;;;;;2.18;61.20;101545.83;107201;1248;60737;-86
2023/03/13 07:03:58;;;;;;;29.70;16.10;;;;;;;2.52;59.50;101545.33;107166;1245;58983;-82
2023/03/13 07:06:27;;;;;;;27.90;15.10;;;;;;;2.85;58.11;101543.59;107113;1258;71058;-84
2023/03/13 07:08:56;;;;;;;26.40;14.80;;;;;;;3.14;56.84;101537.78;107088;1249;71882;-84
2023/03/13 07:11:25;;;;;;;32.00;15.40;;;;;;;3.34;55.93;101538.58;107031;1252;70360;-85
2023/03/13 07:13:55;;;;;;;27.90;13.30;;;;;;;3.46;55.03;101535.33;106857;1249;74199;-83
2023/03/13 07:16:44;;;;;;;31.30;14.00;;;;;;;3.41;54.64;101531.49;107107;1247;60385;-83
2023/03/13 07:19:14;;;;;;;30.20;14.40;;;;;;;3.33;54.40;101530.88;107215;1257;57446;-84
2023/03/13 07:21:43;;;;;;;22.80;15.10;;;;;;;3.33;54.13;101528.99;107193;1245;72235;-83
2023/03/13 07:24:12;;;;;;;29.50;13.50;;;;;;;3.44;54.11;101529.36;107282;1244;73215;-80
2023/03/13 07:26:41;;;;;;;26.30;13.90;;;;;;;3.57;52.88;101525.86;107152;1245;70120;-85
2023/03/13 07:29:29;;;;;;;26.70;14.60;;;;;;;3.64;52.84;101522.88;107125;1248;64771;-86
2023/03/13 07:31:58;;;;;;;28.40;14.10;;;;;;;3.79;52.33;101518.29;106984;1252;58917;-85
2023/03/13 07:34:27;;;;;;;28.80;13.60;;;;;;;3.94;51.99;101516.79;107149;1244;61344;-83
2023/03/13 07:36:56;;;;;;;30.60;15.00;;;;;;;4.11;51.43;101510.56;107322;1248;72629;-84
2023/03/13 07:39:25;;;;;;;27.00;12.80;;;;;;;4.27;49.86;101519.50;107233;1248;72573;-85
2023/03/13 07:41:53;;;;;;;19.70;11.80;;;;;;;4.44;48.95;101517.71;107014;1245;70908;-83
2023/03/13 07:44:22;;;;;;;18.20;10.50;;;;;;;4.55;47.43;101519.42;107153;1258;73328;-86
2023/03/13 07:46:51;;;;;;;17.00;9.90;;;;;;;4.77;46.11;101519.51;106945;1252;59153;-83
2023/03/13 07:49:21;;;;;;;16.20;8.20;;;;;;;4.99;44.82;101509.24;107156;1248;59955;-84
2023/03/13 07:51:50;;;;;;;12.00;6.50;;;;;;;5.31;43.36;101508.38;107141;1255;62409;-83
2023/03/13 07:54:19;;;;;;;11.10;6.10;;;;;;;5.54;41.12;101507.86;107366;1244;72176;-82
2023/03/13 07:56:49;;;;;;;9.70;4.80;;;;;;;5.79;40.97;101511.55;107206;1250;60709;-84
2023/03/13 07:59:18;;;;;;;9.60;5.30;;;;;;;5.91;40.52;101509.20;106946;1252;63781;-83
2023/03/13 08:01:48;;;;;;;7.60;4.70;;;;;;;5.98;39.97;101502.67;107070;1248;58961;-86
2023/03/13 08:04:18;;;;;;;8.80;4.60;;;;;;;6.12;39.71;101499.69;107059;1248;59005;-84
2023/03/13 08:06:47;;;;;;;9.40;5.00;;;;;;;6.24;39.31;101500.77;106985;1258;70970;-83
2023/03/13 08:09:16;;;;;;;12.50;5.60;;;;;;;6.28;39.52;101502.66;107120;1245;72043;-86
2023/03/13 08:11:45;;;;;;;9.20;4.80;;;;;;;6.26;38.91;101501.22;107145;1258;69008;-83
2023/03/13 08:14:14;;;;;;;8.10;5.20;;;;;;;6.41;39.22;101497.13;107115;1248;63657;-84
2023/03/13 08:16:43;;;;;;;8.50;5.60;;;;;;;6.55;38.99;101495.47;107170;1244;59326;-84
2023/03/13 08:19:12;;;;;;;11.10;4.60;;;;;;;6.69;38.38;101489.16;107191;1258;62181;-84
2023/03/13 08:21:41;;;;;;;10.90;5.40;;;;;;;6.81;38.64;101490.17;107220;1249;72050;-83
2023/03/13 08:24:11;;;;;;;10.80;5.40;;;;;;;6.92;38.12;101485.52;107175;1258;72610;-84
2023/03/13 08:26:41;;;;;;;13.30;5.80;;;;;;;7.00;38.19;101485.99;107134;1249;61008;-82
2023/03/13 08:29:14;;;;;;;9.10;6.10;;;;;;;7.13;38.46;101487.19;106858;1252;63427;-83
2023/03/13 08:31:48;;;;;;;12.90;6.50;;;;;;;7.26;39.00;101486.95;107019;1248;59577;-83
2023/03/13 08:34:18;;;;;;;14.10;6.90;;;;;;;7.29;37.86;101493.17;107108;1248;59193;-82
2023/03/13 08:36:47;;;;;;;12.20;6.50;;;;;;;7.38;37.34;101490.16;107020;1248;72654;-83
2023/03/13 08:39:19;;;;;;;14.00;6.70;;;;;;;7.38;37.42;101484.97;106868;1252;62016;-83
2023/03/13 08:41:48;;;;;;;13.50;6.80;;;;;;;7.38;37.54;101477.02;107191;1249;70429;-82
2023/03/13 08:44:21;;;;;;;13.60;7.00;;;;;;;7.52;38.24;101467.52;107373;1245;74333;-84
2023/03/13 08:46:51;;;;;;;13.70;7.00;;;;;;;7.65;37.86;101460.83;107559;1254;58508;-86
2023/03/13 08:49:20;;;;;;;10.70;6.10;;;;;;;7.81;37.28;101455.17;107600;1241;61256;-81
2023/03/13 08:51:49;;;;;;;14.20;7.00;;;;;;;7.96;38.28;101448.70;107530;1244;73052;-82
2023/03/13 08:54:18;;;;;;;16.00;6.70;;;;;;;7.98;37.21;101446.89;107558;1244;71801;-83
2023/03/13 08:56:47;;;;;;;10.50;6.10;;;;;;;8.11;36.77;101436.69;107435;1255;69929;-85
2023/03/13 08:59:16;;;;;;;12.00;5.90;;;;;;;8.13;36.10;101432.63;107489;1245;72796;-83
2023/03/13 09:01:44;;;;;;;10.20;5.30;;;;;;;7.96;36.38;101430.19;107508;1245;59524;-85
2023/03/13 09:04:13;;;;;;;9.70;6.00;;;;;;;8.08;35.97;101424.71;107527;1255;58267;-84
2023/03/13 09:06:42;;;;;;;13.00;7.20;;;;;;;8.15;35.91;101420.37;107636;1252;62229;-82
2023/03/13 09:09:13;;;;;;;13.20;6.60;;;;;;;8.22;35.68;101422.23;107516;1255;60895;-82
2023/03/13 09:11:42;;;;;;;10.10;5.00;;;;;;;8.40;34.77;101428.98;107465;1255;69717;-81
2023/03/13 09:14:10;;;;;;;9.50;5.40;;;;;;;8.54;34.01;101425.34;107574;1245;65379;-84
2023/03/13 09:16:39;;;;;;;12.80;5.70;;;;;;;8.62;33.29;101422.30;107566;1246;58308;-84
2023/03/13 09:19:08;;;;;;;8.40;4.00;;;;;;;8.69;31.34;101428.14;107404;1248;57715;-81
2023/03/13 09:21:36;;;;;;;7.90;4.70;;;;;;;8.71;31.51;101423.88;107571;1255;71868;-80
2023/03/13 09:24:06;;;;;;;5.00;3.20;;;;;;;8.88;31.88;101428.20;107543;1255;72494;-82
2023/03/13 09:26:35;;;;;;;9.20;4.50;;;;;;;8.94;31.22;101429.94;107340;1248;60684;-81
2023/03/13 09:29:04;;;;;;;7.30;3.80;;;;;;;9.00;31.40;101439.70;107592;1242;74267;-83
2023/03/13 09:31:33;;;;;;;6.60;3.80;;;;;;;9.02;31.43;101440.15;107762;1253;61518;-84
2023/03/13 09:34:03;;;;;;;10.90;5.10;;;;;;;8.99;31.53;101440.12;107794;1241;58923;-84
2023/03/13 09:36:32;;;;;;;9.00;4.30;;;;;;;9.00;31.96;101436.55;107567;1244;61408;-84
2023/03/13 09:39:01;;;;;;;11.50;5.00;;;;;;;9.04;32.16;101429.05;107545;1246;61545;-82
2023/03/13 09:41:44;;;;;;;9.70;4.70;;;;;;;9.00;32.12;101420.45;107557;1242;69999;-85
2023/03/13 09:44:24;;;;;;;;;;;;;;;9.14;32.28;101421.19;107603;1248;62911;-80
2023/03/13 09:47:12;;;;;;;8.00;4.50;;;;;;;9.37;32.22;101414.91;107589;1246;57348;-83
2023/03/13 09:49:53;;;;;;;10.70;5.50;;;;;;;9.47;31.94;101417.09;107177;1248;59049;-84
2023/03/13 09:52:24;;;;;;;9.00;3.50;;;;;;;9.59;31.49;101405.48;107402;1245;72664;-82
2023/03/13 09:55:12;;;;;;;8.60;4.10;;;;;;;9.68;31.38;101399.92;107294;1249;73456;-83
2023/03/13 09:58:21;;;;;;;6.90;3.40;;;;;;;9.73;30.58;101394.20;107511;1246;59988;-83
2023/03/13 10:01:04;;;;;;;8.00;4.10;;;;;;;9.84;30.01;101392.04;107550;1246;73814;-83
2023/03/13 10:03:41;;;;;;;5.80;3.30;;;;;;;9.84;30.17;101393.94;107589;1245;58292;-83
2023/03/13 10:06:20;;;;;;;9.50;4.50;;;;;;;9.95;30.21;101387.73;107266;1249;58971;-82
2023/03/13 10:08:49;;;;;;;9.40;3.30;;;;;;;10.15;29.59;101386.05;107514;1246;62215;-81
2023/03/13 10:11:57;;;;;;;5.10;3.10;;;;;;;10.24;29.09;101383.07;107263;1242;71601;-83
2023/03/13 10:14:49;;;;;;;7.40;2.40;;;;;;;10.45;28.60;101383.56;107448;1245;60267;-81
2023/03/13 17:08:36;;;;;;;21.70;9.40;;;;;;;10.31;35.79;101128.30;104009;1279;601829;-84
2023/03/13 17:11:05;;;;;;;13.70;8.10;;;;;;;10.26;36.00;101124.79;106930;1251;57572;-83
2023/03/13 17:13:34;;;;;;;20.60;9.80;;;;;;;10.22;36.30;101125.89;106773;1258;57645;-82
2023/03/13 17:16:31;;;;;;;22.50;10.00;;;;;;;10.18;36.38;101121.95;106955;1247;61342;-82
2023/03/13 17:19:02;;;;;;;17.60;10.10;;;;;;;10.08;36.82;101124.02;106894;1250;71457;-81
2023/03/13 17:21:31;;;;;;;18.20;8.80;;;;;;;9.96;37.03;101126.51;106725;1245;370218;-84
2023/03/13 17:24:00;;;;;;;17.40;9.50;;;;;;;9.87;37.38;101124.33;107036;1258;64096;-79
2023/03/13 17:26:38;;;;;;;19.40;8.70;;;;;;;9.84;37.50;101128.64;107256;1252;59154;-85
2023/03/13 17:29:15;;;;;;;18.20;9.00;;;;;;;9.80;37.42;101128.73;107512;1248;58394;-85
2023/03/13 17:31:44;;;;;;;17.10;8.50;;;;;;;9.76;37.56;101133.53;107336;1245;72183;-83
2023/03/13 17:34:14;;;;;;;17.90;10.10;;;;;;;9.74;37.79;101130.16;107209;1251;73156;-83
2023/03/13 17:36:44;;;;;;;18.10;9.50;;;;;;;9.73;38.22;101129.17;107341;1246;69585;-81
2023/03/13 17:39:14;;;;;;;17.50;8.50;;;;;;;9.73;38.35;101133.52;107378;1248;73725;-82
2023/03/13 17:41:43;;;;;;;14.50;7.90;;;;;;;9.69;38.49;101136.52;107407;1244;59128;-87
2023/03/13 17:44:12;;;;;;;16.20;7.60;;;;;;;9.69;38.68;101138.27;107556;1243;58213;-83
2023/03/13 17:46:46;;;;;;;13.50;7.80;;;;;;;9.64;39.02;101135.13;107511;1247;71057;-83
2023/03/13 17:49:19;;;;;;;12.90;7.90;;;;;;;9.62;39.16;101132.30;107778;1256;61406;-91
2023/03/13 17:53:26;;;;;;;14.50;8.60;;;;;;;9.62;39.49;101130.23;105211;1279;601223;-85
2023/03/13 17:55:55;;;;;;;18.80;8.30;;;;;;;9.53;39.84;101127.98;107611;1249;61264;-86
2023/03/13 17:58:23;;;;;;;13.60;8.30;;;;;;;9.47;40.06;101128.48;107499;1248;61685;-84
2023/03/13 18:00:52;;;;;;;12.80;7.90;;;;;;;9.49;39.98;101127.67;107290;1251;62549;-83
2023/03/13 18:03:22;;;;;;;14.20;7.60;;;;;;;9.52;39.99;101124.51;107314;1250;61686;-82
2023/03/13 18:05:51;;;;;;;15.20;9.30;;;;;;;9.52;40.19;101119.50;107251;1251;59268;-82
2023/03/13 18:08:20;;;;;;;15.60;9.00;;;;;;;9.52;40.14;101116.73;107104;1249;63624;-83
2023/03/13 18:10:48;;;;;;;16.50;8.50;;;;;;;9.48;40.38;101114.88;107482;1248;61113;-84
2023/03/13 18:13:18;;;;;;;13.20;7.90;;;;;;;9.48;40.31;101111.73;107295;1251;59068;-84
2023/03/13 18:15:47;;;;;;;13.70;8.70;;;;;;;9.47;40.69;101111.13;107267;1251;63038;-85
2023/03/13 18:18:16;;;;;;;14.00;7.10;;;;;;;9.47;40.57;101110.61;107739;1245;60840;-82
2023/03/13 18:20:46;;;;;;;15.10;8.20;;;;;;;9.44;40.47;101107.52;107447;1247;59299;-83
2023/03/13 18:23:15;;;;;;;13.10;8.00;;;;;;;9.38;40.52;101106.10;107690;1243;73667;-84
2023/03/13 18:25:44;;;;;;;16.80;7.70;;;;;;;9.37;40.54;101110.53;107474;1244;62049;-82
2023/03/13 18:28:13;;;;;;;13.90;7.50;;;;;;;9.33;40.79;101109.52;107361;1246;58936;-82
2023/03/13 18:30:41;;;;;;;12.00;7.70;;;;;;;9.29;41.15;101108.38;107400;1244;73167;-79
2023/03/13 18:33:10;;;;;;;15.40;7.90;;;;;;;9.27;40.97;101105.18;107529;1245;62490;-81
2023/03/13 18:35:39;;;;;;;16.60;8.70;;;;;;;9.23;41.06;101100.91;107418;1245;60099;-81
2023/03/13 18:38:12;;;;;;;14.10;8.00;;;;;;;9.22;41.12;101100.45;107549;1245;64137;-79
2023/03/13 18:40:41;;;;;;;12.90;8.20;;;;;;;9.19;41.07;101099.41;107543;1243;57500;-82
2023/03/13 18:43:10;;;;;;;13.40;7.40;;;;;;;9.16;41.17;101099.41;107487;1244;59089;-79
2023/03/13 18:45:39;;;;;;;11.40;7.90;;;;;;;9.10;41.48;101098.75;107337;1243;71917;-83
2023/03/13 18:48:11;;;;;;;14.60;7.80;;;;;;;9.09;41.65;101093.24;107522;1244;71587;-82
2023/03/13 18:50:40;;;;;;;10.90;7.40;;;;;;;9.01;41.49;101080.90;107499;1246;71050;-86
2023/03/13 18:53:09;;;;;;;12.30;7.60;;;;;;;9.06;41.77;101082.52;107426;1245;74020;-86
2023/03/13 18:55:38;;;;;;;10.80;7.20;;;;;;;9.00;41.86;101086.30;107526;1245;60832;-81
2023/03/13 18:58:10;;;;;;;16.90;7.90;;;;;;;9.00;41.71;101086.33;107565;1244;61201;-83
2023/03/13 19:00:39;;;;;;;11.30;6.90;;;;;;;8.97;41.74;101091.70;107429;1248;71606;-83
2023/03/13 19:03:08;;;;;;;12.00;7.10;;;;;;;8.96;42.10;101083.77;107486;1244;72736;-82
2023/03/13 19:05:37;;;;;;;12.10;8.10;;;;;;;8.95;41.95;101082.99;107660;1248;59901;-76
2023/03/13 19:08:09;;;;;;;12.90;7.40;;;;;;;8.91;41.97;101082.21;107609;1244;73172;-82
2023/03/13 19:10:39;;;;;;;9.80;6.50;;;;;;;8.84;42.04;101074.80;107584;1244;60154;-81
2023/03/13 19:13:08;;;;;;;11.60;6.90;;;;;;;8.80;42.80;101076.61;107643;1244;61283;-83
2023/03/13 19:15:36;;;;;;;16.50;8.00;;;;;;;8.73;42.44;101071.05;107639;1245;73250;-84
2023/03/13 19:18:10;;;;;;;12.50;7.20;;;;;;;8.70;42.45;101081.48;107718;1244;62891;-80
2023/03/13 19:20:39;;;;;;;12.80;8.00;;;;;;;8.62;42.71;101089.10;107337;1248;70509;-81
2023/03/13 19:23:09;;;;;;;12.80;7.10;;;;;;;8.57;42.99;101095.30;107608;1245;73404;-80
2023/03/13 19:25:38;;;;;;;13.50;7.70;;;;;;;8.52;42.98;101097.48;107521;1245;60070;-81
2023/03/13 19:28:08;;;;;;;16.90;7.70;;;;;;;8.52;43.32;101102.04;107600;1248;60260;-82
2023/03/13 19:30:37;;;;;;;14.60;7.90;;;;;;;8.47;43.49;101104.89;107382;1251;63775;-78
2023/03/13 19:33:06;;;;;;;12.10;6.80;;;;;;;8.48;43.56;101105.00;107453;1244;73175;-78
2023/03/13 19:35:35;;;;;;;15.50;7.20;;;;;;;8.44;43.43;101108.20;107348;1252;60732;-85
2023/03/13 19:38:04;;;;;;;15.00;8.10;;;;;;;8.39;43.57;101111.77;107501;1255;71899;-83
2023/03/13 19:40:33;;;;;;;14.10;8.20;;;;;;;8.35;43.81;101109.74;107523;1244;57931;-83
2023/03/13 19:43:02;;;;;;;13.10;8.20;;;;;;;8.34;44.72;101113.59;107523;1243;61106;-80
2023/03/13 19:45:31;;;;;;;14.00;8.70;;;;;;;8.30;44.38;101115.56;107348;1243;73063;-82
2023/03/13 19:47:59;;;;;;;14.40;8.10;;;;;;;8.26;44.60;101119.78;107408;1245;72499;-86
2023/03/13 19:50:29;;;;;;;14.10;9.30;;;;;;;8.23;44.41;101117.16;107555;1244;70813;-84
2023/03/13 19:52:58;;;;;;;27.40;9.00;;;;;;;8.18;44.97;101115.18;107350;1248;63353;-83
2023/03/13 19:55:27;;;;;;;12.50;7.20;;;;;;;8.14;44.91;101115.92;107703;1245;57497;-83
2023/03/13 19:57:56;;;;;;;13.70;8.80;;;;;;;8.11;44.90;101115.42;107402;1247;57577;-85
2023/03/13 20:00:28;;;;;;;17.40;9.00;;;;;;;8.08;44.93;101112.11;107450;1246;71010;-82
2023/03/13 20:02:57;;;;;;;15.10;8.60;;;;;;;8.00;45.16;101105.09;107567;1245;61300;-83
2023/03/13 20:05:26;;;;;;;16.10;9.40;;;;;;;7.94;45.77;101104.19;107685;1246;69619;-81
2023/03/13 20:07:56;;;;;;;18.00;9.00;;;;;;;7.93;45.79;101106.31;107602;1245;73853;-82
2023/03/13 20:10:25;;;;;;;15.40;9.00;;;;;;;7.91;45.75;101107.13;107552;1245;60413;-92
2023/03/13 20:12:54;;;;;;;14.20;8.90;;;;;;;7.88;45.73;101106.76;107634;1244;61612;-84
2023/03/13 20:15:23;;;;;;;15.10;8.40;;;;;;;7.87;45.88;101107.73;107631;1248;72552;-86
2023/03/13 20:17:52;;;;;;;14.30;8.70;;;;;;;7.81;46.19;101105.09;107530;1245;72967;-88
2023/03/13 20:20:21;;;;;;;13.30;7.70;;;;;;;7.75;46.16;101104.92;107533;1244;70097;-85
2023/03/13 20:22:51;;;;;;;14.10;9.50;;;;;;;7.69;46.72;101105.02;107619;1245;74292;-87
2023/03/13 20:25:21;;;;;;;15.50;9.00;;;;;;;7.69;46.81;101106.43;107763;1245;60752;-85
2023/03/13 20:27:52;;;;;;;14.00;8.80;;;;;;;7.65;46.70;101107.52;107522;1245;59188;-77
2023/03/13 20:30:22;;;;;;;15.00;8.80;;;;;;;7.61;46.85;101106.88;107330;1245;62110;-77
2023/03/13 20:32:50;;;;;;;21.10;9.20;;;;;;;7.56;47.07;101105.04;107436;1245;72067;-76
2023/03/13 20:35:27;;;;;;;14.10;9.00;;;;;;;7.50;47.15;101106.56;107464;1245;59558;-72
2023/03/13 20:37:58;;;;;;;16.10;8.90;;;;;;;7.44;47.58;101103.60;107342;1244;62479;-84
2023/03/13 20:40:27;;;;;;;14.70;9.30;;;;;;;7.44;47.53;101100.14;107644;1245;57440;-89
2023/03/13 20:42:57;;;;;;;14.10;9.30;;;;;;;7.41;48.00;101098.55;107613;1248;57556;-84
2023/03/13 20:45:30;;;;;;;16.10;8.50;;;;;;;7.36;48.07;101094.33;107833;1242;63087;-82
2023/03/13 20:47:59;;;;;;;15.50;8.90;;;;;;;7.30;47.95;101089.11;107740;1245;61670;-84
2023/03/13 20:50:28;;;;;;;15.00;8.90;;;;;;;7.29;47.99;101079.45;107492;1244;60089;-85
2023/03/13 20:52:57;;;;;;;14.50;9.10;;;;;;;7.29;48.08;101079.27;107304;1245;74360;-85
2023/03/13 20:55:26;;;;;;;14.30;9.40;;;;;;;7.26;48.35;101075.10;107430;1245;60719;-83
2023/03/13 20:57:55;;;;;;;17.00;10.00;;;;;;;7.25;48.24;101076.40;107358;1245;61626;-82
2023/03/13 21:00:24;;;;;;;12.20;8.00;;;;;;;7.24;48.53;101075.92;107265;1244;74538;-81
2023/03/13 21:02:53;;;;;;;13.20;9.60;;;;;;;7.24;48.70;101075.39;107192;1257;62980;-80
2023/03/13 21:05:22;;;;;;;14.70;9.70;;;;;;;7.23;48.48;101072.31;107387;1256;67872;-82
2023/03/13 21:07:51;;;;;;;14.50;9.30;;;;;;;7.24;48.45;101072.81;107258;1254;73317;-82
2023/03/13 21:10:20;;;;;;;13.60;9.30;;;;;;;7.25;48.62;101069.30;107287;1244;58951;-81
2023/03/13 21:12:49;;;;;;;16.60;9.60;;;;;;;7.21;48.68;101069.13;107413;1256;61748;-83
2023/03/13 21:15:18;;;;;;;15.20;8.90;;;;;;;7.22;48.57;101071.16;107177;1256;71296;-82
2023/03/13 21:17:47;;;;;;;13.20;9.70;;;;;;;7.21;48.51;101069.83;107321;1245;61157;-80
2023/03/13 21:20:16;;;;;;;14.10;9.10;;;;;;;7.20;48.65;101067.97;107544;1245;59215;-80
2023/03/13 21:22:45;;;;;;;16.00;10.40;;;;;;;7.15;48.75;101066.66;107364;1244;65068;-80
2023/03/13 21:25:14;;;;;;;14.30;8.90;;;;;;;7.12;48.74;101060.42;107324;1245;59991;-83
2023/03/13 21:27:43;;;;;;;12.50;8.60;;;;;;;7.07;48.99;101058.45;107330;1246;61575;-85
2023/03/13 21:30:19;;;;;;;17.60;9.80;;;;;;;7.02;49.07;101060.42;107182;1248;62544;-81
2023/03/13 21:32:48;;;;;;;15.00;9.30;;;;;;;6.93;49.30;101060.88;107295;1245;60979;-80
2023/03/13 21:35:17;;;;;;;15.20;8.90;;;;;;;6.92;49.32;101058.02;107283;1245;60057;-80
2023/03/13 21:37:46;;;;;;;15.50;9.30;;;;;;;6.88;49.52;101054.90;107291;1256;62344;-79
2023/03/13 21:40:15;;;;;;;14.90;9.70;;;;;;;6.89;49.56;101047.07;107156;1245;60123;-79
2023/03/13 21:42:44;;;;;;;15.80;8.90;;;;;;;6.86;49.58;101049.83;107306;1244;60849;-80
2023/03/13 21:45:13;;;;;;;15.20;9.30;;;;;;;6.83;49.97;101048.06;108090;1239;72551;-80
2023/03/13 21:47:41;;;;;;;14.50;8.90;;;;;;;6.81;49.86;101045.58;108027;1237;71917;-78
2023/03/13 21:50:11;;;;;;;17.30;9.20;;;;;;;6.80;49.93;101042.35;108048;1238;60443;-76
2023/03/13 21:52:41;;;;;;;13.20;8.70;;;;;;;6.78;49.89;101043.98;107927;1239;73808;-76
2023/03/13 21:55:11;;;;;;;12.80;8.80;;;;;;;6.78;49.97;101040.86;108016;1238;59941;-77
2023/03/13 21:57:41;;;;;;;13.70;8.20;;;;;;;6.74;50.03;101044.20;108000;1237;61653;-77
2023/03/13 22:00:12;;;;;;;12.30;8.70;;;;;;;6.69;50.14;101038.38;107987;1239;73130;-79
2023/03/13 22:02:43;;;;;;;13.70;9.20;;;;;;;6.65;50.11;101043.09;108124;1238;71853;-78
2023/03/13 22:05:12;;;;;;;12.10;9.10;;;;;;;6.64;50.01;101038.13;108046;1238;61917;-77
2023/03/13 22:07:41;;;;;;;11.80;8.30;;;;;;;6.61;50.05;101038.82;107895;1246;64152;-76
2023/03/13 22:10:10;;;;;;;13.90;7.80;;;;;;;6.61;50.55;101036.35;107943;1239;58948;-76
2023/03/13 22:12:39;;;;;;;14.30;9.40;;;;;;;6.62;50.27;101034.23;107878;1248;58704;-82
2023/03/13 22:15:09;;;;;;;14.80;8.10;;;;;;;6.60;50.17;101033.82;108096;1239;62156;-79
2023/03/13 22:17:38;;;;;;;14.90;7.90;;;;;;;6.60;50.09;101027.77;107895;1239;62630;-77
2023/03/13 22:20:09;;;;;;;12.50;8.00;;;;;;;6.64;50.01;101023.09;107995;1238;59149;-79
2023/03/13 22:22:37;;;;;;;13.80;8.40;;;;;;;6.62;50.11;101024.38;107649;1249;73214;-76
2023/03/13 22:25:07;;;;;;;13.90;8.20;;;;;;;6.58;50.42;101027.52;107899;1245;58669;-77
2023/03/13 22:27:36;;;;;;;13.70;8.80;;;;;;;6.57;50.19;101028.28;107918;1243;58922;-76
2023/03/13 22:30:06;;;;;;;12.10;8.30;;;;;;;6.56;50.41;101022.77;107850;1237;74039;-77
2023/03/13 22:32:35;;;;;;;14.40;8.30;;;;;;;6.56;50.09;101027.14;107724;1239;62879;-78
2023/03/13 22:35:05;;;;;;;13.50;8.20;;;;;;;6.52;49.97;101028.36;107773;1249;59100;-76
2023/03/13 22:37:35;;;;;;;15.90;8.10;;;;;;;6.51;49.98;101029.27;107842;1245;73949;-75
2023/03/13 22:40:05;;;;;;;13.20;8.10;;;;;;;6.45;50.30;101029.55;107840;1239;61653;-76
2023/03/13 22:42:34;;;;;;;12.60;7.80;;;;;;;6.47;50.20;101035.55;107765;1240;57874;-77
2023/03/13 22:45:03;;;;;;;11.70;7.20;;;;;;;6.45;50.17;101035.28;107601;1242;72811;-77
2023/03/13 22:47:32;;;;;;;14.60;7.80;;;;;;;6.45;49.95;101029.77;107723;1241;61587;-76
2023/03/13 22:50:01;;;;;;;13.60;7.90;;;;;;;6.40;50.32;101031.38;107690;1238;69642;-77
2023/03/13 22:52:30;;;;;;;12.10;7.20;;;;;;;6.31;50.42;101033.21;107859;1249;74223;-76
2023/03/13 22:54:59;;;;;;;12.00;7.60;;;;;;;6.23;50.74;101036.20;107844;1240;59028;-79
2023/03/13 22:57:28;;;;;;;12.80;7.70;;;;;;;6.17;50.59;101045.14;107898;1239;58898;-76
2023/03/13 22:59:59;;;;;;;12.90;8.10;;;;;;;6.11;50.87;101051.82;107579;1249;62190;-77
2023/03/13 23:02:28;;;;;;;11.50;7.60;;;;;;;6.04;51.20;101055.30;107608;1238;72070;-78
2023/03/13 23:04:59;;;;;;;10.80;7.40;;;;;;;6.00;51.30;101061.19;107748;1239;70322;-78
2023/03/13 23:07:29;;;;;;;11.50;7.60;;;;;;;5.95;51.26;101060.75;107734;1239;74430;-82
2023/03/13 23:09:58;;;;;;;11.00;7.30;;;;;;;5.88;51.22;101066.73;107721;1239;59507;-79
2023/03/13 23:12:29;;;;;;;11.70;7.40;;;;;;;5.79;51.78;101063.86;107762;1238;60964;-78
2023/03/13 23:14:58;;;;;;;13.90;7.40;;;;;;;5.72;52.35;101068.52;107776;1249;62607;-76
2023/03/13 23:17:32;;;;;;;13.50;7.30;;;;;;;5.68;52.35;101070.61;107753;1240;61734;-76
2023/03/13 23:20:11;;;;;;;11.40;7.70;;;;;;;5.62;52.60;101067.08;107901;1239;69679;-77
2023/03/13 23:22:43;;;;;;;9.50;6.60;;;;;;;5.54;52.82;101053.44;107722;1248;73827;-78
2023/03/13 23:25:13;;;;;;;10.20;7.30;;;;;;;5.49;53.34;101055.22;107760;1242;59390;-76
2023/03/13 23:27:42;;;;;;;10.00;7.30;;;;;;;5.42;53.26;101061.08;108131;1244;57527;-77
2023/03/13 23:30:15;;;;;;;10.90;7.30;;;;;;;5.37;53.53;101067.52;108193;1243;62203;-77
2023/03/13 23:32:47;;;;;;;11.10;7.40;;;;;;;5.31;53.83;101067.98;108350;1239;71627;-76
2023/03/13 23:35:16;;;;;;;13.90;6.60;;;;;;;5.26;54.14;101071.29;108479;1238;70845;-78
2023/03/13 23:37:52;;;;;;;11.70;6.30;;;;;;;5.21;54.11;101068.58;108685;1241;72873;-78
2023/03/13 23:40:22;;;;;;;10.90;6.90;;;;;;;5.17;54.58;101062.71;108311;1237;58741;-77
2023/03/13 23:42:51;;;;;;;10.90;6.90;;;;;;;5.13;54.48;101059.44;107689;1242;59109;-81
2023/03/13 23:45:20;;;;;;;13.20;7.20;;;;;;;5.14;54.81;101060.98;107785;1249;62100;-78
2023/03/13 23:47:52;;;;;;;10.90;6.40;;;;;;;5.08;54.56;101054.31;107743;1239;72687;-84
2023/03/13 23:50:22;;;;;;;11.30;7.20;;;;;;;5.04;54.90;101049.98;107627;1241;60308;-81
2023/03/13 23:52:51;;;;;;;13.10;7.00;;;;;;;5.01;54.64;101043.75;107669;1249;64235;-79
2023/03/13 23:55:20;;;;;;;10.00;6.70;;;;;;;4.98;55.40;101043.35;107610;1238;59002;-81
2023/03/13 23:57:51;;;;;;;10.00;6.70;;;;;;;4.93;55.35;101042.36;107537;1237;60081;-82
